sensor_id;sensor_type;location;lat;lon;timestamp;temperature;humidity
16412;DHT22;8315;52.104;6.304;2022-09-01T00:00:38;16.80;98.40
16412;DHT22;8315;52.104;6.304;2022-09-01T00:03:06;16.80;98.40
16412;DHT22;8315;52.104;6.304;2022-09-01T00:05:35;16.80;98.40
16412;DHT22;8315;52.104;6.304;2022-09-01T00:08:02;16.70;98.40
16412;DHT22;8315;52.104;6.304;2022-09-01T00:10:29;16.60;98.40
16412;DHT22;8315;52.104;6.304;2022-09-01T00:12:58;16.60;98.40
16412;DHT22;8315;52.104;6.304;2022-09-01T00:15:24;16.70;98.40
16412;DHT22;8315;52.104;6.304;2022-09-01T00:17:51;16.50;98.40
16412;DHT22;8315;52.104;6.304;2022-09-01T00:20:18;16.40;98.40
16412;DHT22;8315;52.104;6.304;2022-09-01T00:22:45;16.50;98.40
16412;DHT22;8315;52.104;6.304;2022-09-01T00:25:12;16.50;98.40
16412;DHT22;8315;52.104;6.304;2022-09-01T00:27:39;16.40;98.40
16412;DHT22;8315;52.104;6.304;2022-09-01T00:30:08;16.50;98.40
16412;DHT22;8315;52.104;6.304;2022-09-01T00:32:35;16.50;98.40
16412;DHT22;8315;52.104;6.304;2022-09-01T00:35:02;16.40;98.40
16412;DHT22;8315;52.104;6.304;2022-09-01T00:37:29;16.30;98.40
16412;DHT22;8315;52.104;6.304;2022-09-01T00:39:56;16.40;98.40
16412;DHT22;8315;52.104;6.304;2022-09-01T00:42:23;16.20;98.40
16412;DHT22;8315;52.104;6.304;2022-09-01T00:44:50;16.20;98.40
16412;DHT22;8315;52.104;6.304;2022-09-01T00:47:18;16.10;98.40
16412;DHT22;8315;52.104;6.304;2022-09-01T00:49:46;16.30;98.40
16412;DHT22;8315;52.104;6.304;2022-09-01T00:52:14;16.20;98.40
16412;DHT22;8315;52.104;6.304;2022-09-01T00:54:44;16.30;98.40
16412;DHT22;8315;52.104;6.304;2022-09-01T00:57:12;16.30;98.40
16412;DHT22;8315;52.104;6.304;2022-09-01T00:59:43;16.30;98.40
16412;DHT22;8315;52.104;6.304;2022-09-01T01:02:11;16.20;98.40
16412;DHT22;8315;52.104;6.304;2022-09-01T01:04:40;16.10;98.40
16412;DHT22;8315;52.104;6.304;2022-09-01T01:07:08;16.20;98.40
16412;DHT22;8315;52.104;6.304;2022-09-01T01:09:37;16.20;98.40
16412;DHT22;8315;52.104;6.304;2022-09-01T01:12:07;16.20;98.40
16412;DHT22;8315;52.104;6.304;2022-09-01T01:14:42;16.10;98.40
16412;DHT22;8315;52.104;6.304;2022-09-01T01:17:11;16.00;98.40
16412;DHT22;8315;52.104;6.304;2022-09-01T01:19:41;16.10;98.40
16412;DHT22;8315;52.104;6.304;2022-09-01T01:22:31;16.00;98.40
16412;DHT22;8315;52.104;6.304;2022-09-01T01:25:19;16.00;98.40
16412;DHT22;8315;52.104;6.304;2022-09-01T01:27:49;16.10;98.40
16412;DHT22;8315;52.104;6.304;2022-09-01T01:30:16;16.20;98.40
16412;DHT22;8315;52.104;6.304;2022-09-01T01:32:45;16.10;98.40
16412;DHT22;8315;52.104;6.304;2022-09-01T01:35:13;16.00;98.40
16412;DHT22;8315;52.104;6.304;2022-09-01T01:37:42;15.90;98.40
16412;DHT22;8315;52.104;6.304;2022-09-01T01:40:16;15.90;98.40
16412;DHT22;8315;52.104;6.304;2022-09-01T01:42:47;16.10;98.40
16412;DHT22;8315;52.104;6.304;2022-09-01T01:45:17;16.10;98.40
16412;DHT22;8315;52.104;6.304;2022-09-01T01:47:46;16.00;98.40
16412;DHT22;8315;52.104;6.304;2022-09-01T01:50:19;16.00;98.40
16412;DHT22;8315;52.104;6.304;2022-09-01T01:52:47;16.10;98.40
16412;DHT22;8315;52.104;6.304;2022-09-01T01:55:14;16.00;98.40
16412;DHT22;8315;52.104;6.304;2022-09-01T01:57:44;15.90;98.40
16412;DHT22;8315;52.104;6.304;2022-09-01T02:00:15;15.70;98.40
16412;DHT22;8315;52.104;6.304;2022-09-01T02:02:44;15.70;98.40
16412;DHT22;8315;52.104;6.304;2022-09-01T02:05:13;15.70;98.40
16412;DHT22;8315;52.104;6.304;2022-09-01T02:07:47;15.70;98.40
16412;DHT22;8315;52.104;6.304;2022-09-01T02:10:15;15.70;98.40
16412;DHT22;8315;52.104;6.304;2022-09-01T02:12:42;15.80;98.40
16412;DHT22;8315;52.104;6.304;2022-09-01T02:15:12;15.70;98.40
16412;DHT22;8315;52.104;6.304;2022-09-01T02:17:40;15.70;98.40
16412;DHT22;8315;52.104;6.304;2022-09-01T02:20:08;15.60;98.40
16412;DHT22;8315;52.104;6.304;2022-09-01T02:22:35;15.70;98.40
16412;DHT22;8315;52.104;6.304;2022-09-01T02:25:04;15.60;98.40
16412;DHT22;8315;52.104;6.304;2022-09-01T02:27:31;15.60;98.40
16412;DHT22;8315;52.104;6.304;2022-09-01T02:30:00;15.40;98.40
16412;DHT22;8315;52.104;6.304;2022-09-01T02:32:28;15.40;98.40
16412;DHT22;8315;52.104;6.304;2022-09-01T02:34:56;15.50;98.40
16412;DHT22;8315;52.104;6.304;2022-09-01T02:37:26;15.40;98.40
16412;DHT22;8315;52.104;6.304;2022-09-01T02:39:54;15.40;98.40
16412;DHT22;8315;52.104;6.304;2022-09-01T02:42:22;15.40;98.40
16412;DHT22;8315;52.104;6.304;2022-09-01T02:44:52;15.30;98.40
16412;DHT22;8315;52.104;6.304;2022-09-01T02:47:20;15.30;98.40
16412;DHT22;8315;52.104;6.304;2022-09-01T02:49:49;15.30;98.40
16412;DHT22;8315;52.104;6.304;2022-09-01T02:52:17;15.30;98.40
16412;DHT22;8315;52.104;6.304;2022-09-01T02:54:45;15.40;98.40
16412;DHT22;8315;52.104;6.304;2022-09-01T02:57:14;15.40;98.40
16412;DHT22;8315;52.104;6.304;2022-09-01T02:59:41;15.30;98.40
16412;DHT22;8315;52.104;6.304;2022-09-01T03:02:08;15.30;98.40
16412;DHT22;8315;52.104;6.304;2022-09-01T03:04:36;15.40;98.40
16412;DHT22;8315;52.104;6.304;2022-09-01T03:07:04;15.40;98.40
16412;DHT22;8315;52.104;6.304;2022-09-01T03:09:33;15.30;98.40
16412;DHT22;8315;52.104;6.304;2022-09-01T03:12:01;15.20;98.40
16412;DHT22;8315;52.104;6.304;2022-09-01T03:14:31;15.20;98.40
16412;DHT22;8315;52.104;6.304;2022-09-01T03:16:58;15.20;98.40
16412;DHT22;8315;52.104;6.304;2022-09-01T03:19:26;15.10;98.40
16412;DHT22;8315;52.104;6.304;2022-09-01T03:22:10;15.10;98.40
16412;DHT22;8315;52.104;6.304;2022-09-01T03:24:36;15.20;98.40
16412;DHT22;8315;52.104;6.304;2022-09-01T03:27:04;15.30;98.40
16412;DHT22;8315;52.104;6.304;2022-09-01T03:29:31;15.20;98.40
16412;DHT22;8315;52.104;6.304;2022-09-01T03:32:00;15.10;98.40
16412;DHT22;8315;52.104;6.304;2022-09-01T03:34:27;15.00;98.40
16412;DHT22;8315;52.104;6.304;2022-09-01T03:36:55;15.20;98.40
16412;DHT22;8315;52.104;6.304;2022-09-01T03:39:27;15.20;98.40
16412;DHT22;8315;52.104;6.304;2022-09-01T03:41:54;15.00;98.40
16412;DHT22;8315;52.104;6.304;2022-09-01T03:44:22;14.90;98.40
16412;DHT22;8315;52.104;6.304;2022-09-01T03:46:49;15.00;98.40
16412;DHT22;8315;52.104;6.304;2022-09-01T03:49:17;15.00;98.40
16412;DHT22;8315;52.104;6.304;2022-09-01T03:51:53;15.00;98.40
16412;DHT22;8315;52.104;6.304;2022-09-01T03:54:21;15.00;98.40
16412;DHT22;8315;52.104;6.304;2022-09-01T03:56:55;14.80;98.40
16412;DHT22;8315;52.104;6.304;2022-09-01T03:59:24;14.80;98.40
16412;DHT22;8315;52.104;6.304;2022-09-01T04:01:54;14.80;98.40
16412;DHT22;8315;52.104;6.304;2022-09-01T04:04:21;14.80;98.40
16412;DHT22;8315;52.104;6.304;2022-09-01T04:06:49;14.90;98.40
16412;DHT22;8315;52.104;6.304;2022-09-01T04:09:15;14.80;98.40
16412;DHT22;8315;52.104;6.304;2022-09-01T04:11:43;14.70;98.40
16412;DHT22;8315;52.104;6.304;2022-09-01T04:14:13;14.70;98.40
16412;DHT22;8315;52.104;6.304;2022-09-01T04:16:41;14.60;98.40
16412;DHT22;8315;52.104;6.304;2022-09-01T04:19:26;14.60;98.40
16412;DHT22;8315;52.104;6.304;2022-09-01T04:21:56;14.70;98.40
16412;DHT22;8315;52.104;6.304;2022-09-01T04:24:28;14.60;98.40
16412;DHT22;8315;52.104;6.304;2022-09-01T04:26:59;14.60;98.40
16412;DHT22;8315;52.104;6.304;2022-09-01T04:29:28;14.60;98.40
16412;DHT22;8315;52.104;6.304;2022-09-01T04:31:58;14.50;98.40
16412;DHT22;8315;52.104;6.304;2022-09-01T04:34:29;14.60;98.40
16412;DHT22;8315;52.104;6.304;2022-09-01T04:37:02;14.60;98.40
16412;DHT22;8315;52.104;6.304;2022-09-01T04:39:30;14.60;98.40
16412;DHT22;8315;52.104;6.304;2022-09-01T04:41:57;14.50;98.40
16412;DHT22;8315;52.104;6.304;2022-09-01T04:44:24;14.50;98.40
16412;DHT22;8315;52.104;6.304;2022-09-01T04:46:54;14.40;98.40
16412;DHT22;8315;52.104;6.304;2022-09-01T04:49:21;14.30;98.40
16412;DHT22;8315;52.104;6.304;2022-09-01T04:51:51;14.30;98.40
16412;DHT22;8315;52.104;6.304;2022-09-01T04:54:19;14.30;98.40
16412;DHT22;8315;52.104;6.304;2022-09-01T04:56:46;14.30;98.40
16412;DHT22;8315;52.104;6.304;2022-09-01T04:59:16;14.20;98.40
16412;DHT22;8315;52.104;6.304;2022-09-01T05:01:50;14.20;98.40
16412;DHT22;8315;52.104;6.304;2022-09-01T05:04:22;14.30;98.40
16412;DHT22;8315;52.104;6.304;2022-09-01T05:06:52;14.30;98.40
16412;DHT22;8315;52.104;6.304;2022-09-01T05:09:28;14.30;98.40
16412;DHT22;8315;52.104;6.304;2022-09-01T05:12:02;14.30;98.40
16412;DHT22;8315;52.104;6.304;2022-09-01T05:14:38;14.30;98.40
16412;DHT22;8315;52.104;6.304;2022-09-01T05:17:07;14.20;98.40
16412;DHT22;8315;52.104;6.304;2022-09-01T05:19:38;14.20;98.40
16412;DHT22;8315;52.104;6.304;2022-09-01T05:22:06;14.30;98.40
16412;DHT22;8315;52.104;6.304;2022-09-01T05:24:37;14.30;98.40
16412;DHT22;8315;52.104;6.304;2022-09-01T05:27:05;14.30;98.40
16412;DHT22;8315;52.104;6.304;2022-09-01T05:29:36;14.40;98.40
16412;DHT22;8315;52.104;6.304;2022-09-01T05:32:05;14.40;98.40
16412;DHT22;8315;52.104;6.304;2022-09-01T05:34:35;14.40;98.40
16412;DHT22;8315;52.104;6.304;2022-09-01T05:37:06;14.50;98.40
16412;DHT22;8315;52.104;6.304;2022-09-01T05:39:36;14.60;98.40
16412;DHT22;8315;52.104;6.304;2022-09-01T05:42:04;14.60;98.40
16412;DHT22;8315;52.104;6.304;2022-09-01T05:44:32;14.70;98.40
16412;DHT22;8315;52.104;6.304;2022-09-01T05:47:01;14.80;98.40
16412;DHT22;8315;52.104;6.304;2022-09-01T05:49:29;14.80;98.40
16412;DHT22;8315;52.104;6.304;2022-09-01T05:51:57;14.80;98.40
16412;DHT22;8315;52.104;6.304;2022-09-01T05:54:28;14.90;98.40
16412;DHT22;8315;52.104;6.304;2022-09-01T05:56:57;15.00;98.00
16412;DHT22;8315;52.104;6.304;2022-09-01T05:59:27;15.10;97.70
16412;DHT22;8315;52.104;6.304;2022-09-01T06:02:08;15.10;97.70
16412;DHT22;8315;52.104;6.304;2022-09-01T06:04:36;15.20;97.40
16412;DHT22;8315;52.104;6.304;2022-09-01T06:07:07;15.30;97.00
16412;DHT22;8315;52.104;6.304;2022-09-01T06:09:43;15.40;97.10
16412;DHT22;8315;52.104;6.304;2022-09-01T06:12:11;15.40;96.60
16412;DHT22;8315;52.104;6.304;2022-09-01T06:14:48;15.60;96.70
16412;DHT22;8315;52.104;6.304;2022-09-01T06:17:18;15.70;96.10
16412;DHT22;8315;52.104;6.304;2022-09-01T06:19:49;15.70;96.10
16412;DHT22;8315;52.104;6.304;2022-09-01T06:22:17;15.80;95.90
16412;DHT22;8315;52.104;6.304;2022-09-01T06:24:46;16.00;95.70
16412;DHT22;8315;52.104;6.304;2022-09-01T06:27:14;16.00;95.40
16412;DHT22;8315;52.104;6.304;2022-09-01T06:29:45;16.10;95.20
16412;DHT22;8315;52.104;6.304;2022-09-01T06:32:13;16.20;94.90
16412;DHT22;8315;52.104;6.304;2022-09-01T06:34:41;16.40;94.40
16412;DHT22;8315;52.104;6.304;2022-09-01T06:37:10;16.40;94.10
16412;DHT22;8315;52.104;6.304;2022-09-01T06:39:39;16.50;94.20
16412;DHT22;8315;52.104;6.304;2022-09-01T06:42:08;16.60;93.70
16412;DHT22;8315;52.104;6.304;2022-09-01T06:44:46;16.60;93.60
16412;DHT22;8315;52.104;6.304;2022-09-01T06:47:14;16.70;93.40
16412;DHT22;8315;52.104;6.304;2022-09-01T06:49:41;16.80;93.30
16412;DHT22;8315;52.104;6.304;2022-09-01T06:52:14;16.90;92.80
16412;DHT22;8315;52.104;6.304;2022-09-01T06:54:42;17.00;93.30
16412;DHT22;8315;52.104;6.304;2022-09-01T06:57:11;17.10;92.50
16412;DHT22;8315;52.104;6.304;2022-09-01T06:59:38;17.10;92.30
16412;DHT22;8315;52.104;6.304;2022-09-01T07:02:06;17.20;91.90
16412;DHT22;8315;52.104;6.304;2022-09-01T07:04:54;17.20;92.20
16412;DHT22;8315;52.104;6.304;2022-09-01T07:07:21;17.30;92.00
16412;DHT22;8315;52.104;6.304;2022-09-01T07:10:10;17.40;91.90
16412;DHT22;8315;52.104;6.304;2022-09-01T07:12:46;17.40;91.40
16412;DHT22;8315;52.104;6.304;2022-09-01T07:15:13;17.50;91.40
16412;DHT22;8315;52.104;6.304;2022-09-01T07:17:45;17.60;91.30
16412;DHT22;8315;52.104;6.304;2022-09-01T07:20:15;17.70;90.70
16412;DHT22;8315;52.104;6.304;2022-09-01T07:22:42;17.80;90.70
16412;DHT22;8315;52.104;6.304;2022-09-01T07:25:09;17.90;91.00
16412;DHT22;8315;52.104;6.304;2022-09-01T07:27:51;18.00;90.80
16412;DHT22;8315;52.104;6.304;2022-09-01T07:30:20;18.10;90.20
16412;DHT22;8315;52.104;6.304;2022-09-01T07:32:47;18.20;89.70
16412;DHT22;8315;52.104;6.304;2022-09-01T07:35:17;18.30;89.20
16412;DHT22;8315;52.104;6.304;2022-09-01T07:37:47;18.40;88.90
16412;DHT22;8315;52.104;6.304;2022-09-01T07:40:15;18.50;88.80
16412;DHT22;8315;52.104;6.304;2022-09-01T07:43:12;18.60;88.50
16412;DHT22;8315;52.104;6.304;2022-09-01T07:46:02;18.70;87.90
16412;DHT22;8315;52.104;6.304;2022-09-01T07:48:30;18.90;88.10
16412;DHT22;8315;52.104;6.304;2022-09-01T07:50:57;19.10;87.60
16412;DHT22;8315;52.104;6.304;2022-09-01T07:53:26;19.20;86.80
16412;DHT22;8315;52.104;6.304;2022-09-01T07:55:54;19.20;86.10
16412;DHT22;8315;52.104;6.304;2022-09-01T07:58:23;19.40;86.20
16412;DHT22;8315;52.104;6.304;2022-09-01T08:01:01;19.50;84.70
16412;DHT22;8315;52.104;6.304;2022-09-01T08:03:33;19.60;84.30
16412;DHT22;8315;52.104;6.304;2022-09-01T08:06:01;19.80;84.80
16412;DHT22;8315;52.104;6.304;2022-09-01T08:08:31;19.90;83.30
16412;DHT22;8315;52.104;6.304;2022-09-01T08:10:58;20.00;82.70
16412;DHT22;8315;52.104;6.304;2022-09-01T08:13:27;20.10;82.20
16412;DHT22;8315;52.104;6.304;2022-09-01T08:15:55;20.30;82.50
16412;DHT22;8315;52.104;6.304;2022-09-01T08:18:22;20.40;81.80
16412;DHT22;8315;52.104;6.304;2022-09-01T08:20:49;20.50;81.40
16412;DHT22;8315;52.104;6.304;2022-09-01T08:23:31;20.80;80.70
16412;DHT22;8315;52.104;6.304;2022-09-01T08:25:58;20.90;80.10
16412;DHT22;8315;52.104;6.304;2022-09-01T08:28:33;21.00;78.00
16412;DHT22;8315;52.104;6.304;2022-09-01T08:31:04;21.00;78.20
16412;DHT22;8315;52.104;6.304;2022-09-01T08:33:31;21.10;78.00
16412;DHT22;8315;52.104;6.304;2022-09-01T08:36:00;21.30;77.30
16412;DHT22;8315;52.104;6.304;2022-09-01T08:38:27;21.50;77.20
16412;DHT22;8315;52.104;6.304;2022-09-01T08:40:55;21.50;76.00
16412;DHT22;8315;52.104;6.304;2022-09-01T08:43:46;21.70;76.10
16412;DHT22;8315;52.104;6.304;2022-09-01T08:46:21;21.80;75.30
16412;DHT22;8315;52.104;6.304;2022-09-01T08:48:50;21.90;75.90
16412;DHT22;8315;52.104;6.304;2022-09-01T08:51:19;21.90;75.60
16412;DHT22;8315;52.104;6.304;2022-09-01T08:53:58;21.90;75.60
16412;DHT22;8315;52.104;6.304;2022-09-01T08:56:29;22.00;75.60
16412;DHT22;8315;52.104;6.304;2022-09-01T08:59:00;22.10;75.20
16412;DHT22;8315;52.104;6.304;2022-09-01T09:01:44;22.20;74.30
16412;DHT22;8315;52.104;6.304;2022-09-01T09:04:23;22.20;74.40
16412;DHT22;8315;52.104;6.304;2022-09-01T09:06:58;22.30;73.70
16412;DHT22;8315;52.104;6.304;2022-09-01T09:09:32;22.30;73.40
16412;DHT22;8315;52.104;6.304;2022-09-01T09:15:00;22.30;72.80
16412;DHT22;8315;52.104;6.304;2022-09-01T09:17:34;22.30;72.30
16412;DHT22;8315;52.104;6.304;2022-09-01T09:20:04;22.30;72.40
16412;DHT22;8315;52.104;6.304;2022-09-01T09:22:31;22.20;72.60
16412;DHT22;8315;52.104;6.304;2022-09-01T09:25:00;22.30;73.30
16412;DHT22;8315;52.104;6.304;2022-09-01T09:27:31;22.40;72.20
16412;DHT22;8315;52.104;6.304;2022-09-01T09:30:02;22.40;71.90
16412;DHT22;8315;52.104;6.304;2022-09-01T09:32:41;22.50;70.90
16412;DHT22;8315;52.104;6.304;2022-09-01T09:35:17;22.50;70.60
16412;DHT22;8315;52.104;6.304;2022-09-01T09:37:52;22.30;70.30
16412;DHT22;8315;52.104;6.304;2022-09-01T09:40:20;22.50;70.90
16412;DHT22;8315;52.104;6.304;2022-09-01T09:43:02;22.50;71.10
16412;DHT22;8315;52.104;6.304;2022-09-01T09:45:33;22.60;70.90
16412;DHT22;8315;52.104;6.304;2022-09-01T09:48:04;22.60;70.20
16412;DHT22;8315;52.104;6.304;2022-09-01T09:50:34;22.60;70.70
16412;DHT22;8315;52.104;6.304;2022-09-01T09:53:14;22.60;69.80
16412;DHT22;8315;52.104;6.304;2022-09-01T09:55:49;22.60;70.10
16412;DHT22;8315;52.104;6.304;2022-09-01T09:58:20;22.70;70.30
16412;DHT22;8315;52.104;6.304;2022-09-01T10:00:59;22.70;69.90
16412;DHT22;8315;52.104;6.304;2022-09-01T10:03:35;22.70;70.30
16412;DHT22;8315;52.104;6.304;2022-09-01T10:06:04;22.80;70.10
16412;DHT22;8315;52.104;6.304;2022-09-01T10:08:36;22.90;70.20
16412;DHT22;8315;52.104;6.304;2022-09-01T10:11:09;22.90;69.70
16412;DHT22;8315;52.104;6.304;2022-09-01T10:13:38;22.90;69.20
16412;DHT22;8315;52.104;6.304;2022-09-01T10:16:08;22.90;69.60
16412;DHT22;8315;52.104;6.304;2022-09-01T10:18:42;23.10;69.60
16412;DHT22;8315;52.104;6.304;2022-09-01T10:21:11;23.20;69.40
16412;DHT22;8315;52.104;6.304;2022-09-01T10:23:40;23.20;69.10
16412;DHT22;8315;52.104;6.304;2022-09-01T10:26:08;23.20;68.10
16412;DHT22;8315;52.104;6.304;2022-09-01T10:28:40;23.20;67.70
16412;DHT22;8315;52.104;6.304;2022-09-01T10:31:13;23.20;67.30
16412;DHT22;8315;52.104;6.304;2022-09-01T10:33:40;23.10;67.40
16412;DHT22;8315;52.104;6.304;2022-09-01T10:36:07;23.20;67.20
16412;DHT22;8315;52.104;6.304;2022-09-01T10:38:34;23.20;66.80
16412;DHT22;8315;52.104;6.304;2022-09-01T10:41:01;23.30;67.50
16412;DHT22;8315;52.104;6.304;2022-09-01T10:43:36;23.20;67.30
16412;DHT22;8315;52.104;6.304;2022-09-01T10:46:09;23.20;68.00
16412;DHT22;8315;52.104;6.304;2022-09-01T10:48:59;23.10;67.90
16412;DHT22;8315;52.104;6.304;2022-09-01T10:51:42;23.20;68.80
16412;DHT22;8315;52.104;6.304;2022-09-01T10:57:20;23.10;67.20
16412;DHT22;8315;52.104;6.304;2022-09-01T10:59:54;23.20;65.40
16412;DHT22;8315;52.104;6.304;2022-09-01T11:02:22;23.20;66.00
16412;DHT22;8315;52.104;6.304;2022-09-01T11:07:47;23.40;66.20
16412;DHT22;8315;52.104;6.304;2022-09-01T11:10:20;23.50;66.50
16412;DHT22;8315;52.104;6.304;2022-09-01T11:12:59;23.60;66.30
16412;DHT22;8315;52.104;6.304;2022-09-01T11:15:37;23.70;66.60
16412;DHT22;8315;52.104;6.304;2022-09-01T11:18:09;23.70;67.00
16412;DHT22;8315;52.104;6.304;2022-09-01T11:20:38;23.50;66.40
16412;DHT22;8315;52.104;6.304;2022-09-01T11:23:09;23.50;66.50
16412;DHT22;8315;52.104;6.304;2022-09-01T11:25:39;23.30;68.10
16412;DHT22;8315;52.104;6.304;2022-09-01T11:28:09;23.40;68.80
16412;DHT22;8315;52.104;6.304;2022-09-01T11:31:01;23.60;67.40
16412;DHT22;8315;52.104;6.304;2022-09-01T11:33:40;23.70;67.90
16412;DHT22;8315;52.104;6.304;2022-09-01T11:36:14;23.70;67.40
16412;DHT22;8315;52.104;6.304;2022-09-01T11:38:48;23.60;67.60
16412;DHT22;8315;52.104;6.304;2022-09-01T11:41:24;23.60;67.00
16412;DHT22;8315;52.104;6.304;2022-09-01T11:43:56;23.70;67.30
16412;DHT22;8315;52.104;6.304;2022-09-01T11:46:24;23.80;66.80
16412;DHT22;8315;52.104;6.304;2022-09-01T11:48:53;23.70;66.50
16412;DHT22;8315;52.104;6.304;2022-09-01T11:51:21;23.70;66.20
16412;DHT22;8315;52.104;6.304;2022-09-01T11:53:48;23.70;66.30
16412;DHT22;8315;52.104;6.304;2022-09-01T11:56:16;23.80;64.70
16412;DHT22;8315;52.104;6.304;2022-09-01T11:58:46;23.80;64.90
16412;DHT22;8315;52.104;6.304;2022-09-01T12:01:14;23.90;65.50
16412;DHT22;8315;52.104;6.304;2022-09-01T12:03:42;24.00;64.80
16412;DHT22;8315;52.104;6.304;2022-09-01T12:06:12;24.00;65.20
16412;DHT22;8315;52.104;6.304;2022-09-01T12:08:51;24.30;66.10
16412;DHT22;8315;52.104;6.304;2022-09-01T12:11:21;24.40;65.80
16412;DHT22;8315;52.104;6.304;2022-09-01T12:13:53;24.40;65.00
16412;DHT22;8315;52.104;6.304;2022-09-01T12:16:21;24.30;64.10
16412;DHT22;8315;52.104;6.304;2022-09-01T12:18:48;24.20;64.30
16412;DHT22;8315;52.104;6.304;2022-09-01T12:21:18;24.20;64.80
16412;DHT22;8315;52.104;6.304;2022-09-01T12:23:47;24.20;64.00
16412;DHT22;8315;52.104;6.304;2022-09-01T12:26:17;24.20;64.30
16412;DHT22;8315;52.104;6.304;2022-09-01T12:28:46;24.20;64.90
16412;DHT22;8315;52.104;6.304;2022-09-01T12:31:14;24.40;64.40
16412;DHT22;8315;52.104;6.304;2022-09-01T12:33:42;24.50;63.90
16412;DHT22;8315;52.104;6.304;2022-09-01T12:36:12;24.50;64.10
16412;DHT22;8315;52.104;6.304;2022-09-01T12:38:39;24.50;64.30
16412;DHT22;8315;52.104;6.304;2022-09-01T12:46:58;24.60;63.40
16412;DHT22;8315;52.104;6.304;2022-09-01T12:49:33;24.70;63.90
16412;DHT22;8315;52.104;6.304;2022-09-01T12:52:21;24.90;62.60
16412;DHT22;8315;52.104;6.304;2022-09-01T12:54:50;24.90;62.00
16412;DHT22;8315;52.104;6.304;2022-09-01T12:57:25;24.80;62.10
16412;DHT22;8315;52.104;6.304;2022-09-01T13:00:09;24.80;62.00
16412;DHT22;8315;52.104;6.304;2022-09-01T13:02:41;24.80;62.40
16412;DHT22;8315;52.104;6.304;2022-09-01T13:08:00;24.80;62.00
16412;DHT22;8315;52.104;6.304;2022-09-01T13:10:30;24.90;61.90
16412;DHT22;8315;52.104;6.304;2022-09-01T13:12:58;24.80;62.20
16412;DHT22;8315;52.104;6.304;2022-09-01T13:15:27;24.90;62.80
16412;DHT22;8315;52.104;6.304;2022-09-01T13:17:55;25.00;62.10
16412;DHT22;8315;52.104;6.304;2022-09-01T13:20:22;25.10;62.10
16412;DHT22;8315;52.104;6.304;2022-09-01T13:22:49;24.80;61.70
16412;DHT22;8315;52.104;6.304;2022-09-01T13:25:18;24.90;62.10
16412;DHT22;8315;52.104;6.304;2022-09-01T13:27:46;25.10;61.70
16412;DHT22;8315;52.104;6.304;2022-09-01T13:30:14;25.10;60.90
16412;DHT22;8315;52.104;6.304;2022-09-01T13:32:43;25.10;61.50
16412;DHT22;8315;52.104;6.304;2022-09-01T13:35:11;24.90;61.50
16412;DHT22;8315;52.104;6.304;2022-09-01T13:37:40;24.80;62.00
16412;DHT22;8315;52.104;6.304;2022-09-01T13:40:07;24.60;62.20
16412;DHT22;8315;52.104;6.304;2022-09-01T13:42:40;24.70;62.40
16412;DHT22;8315;52.104;6.304;2022-09-01T13:45:08;24.80;62.70
16412;DHT22;8315;52.104;6.304;2022-09-01T13:47:37;25.00;62.60
16412;DHT22;8315;52.104;6.304;2022-09-01T13:50:06;25.00;62.10
16412;DHT22;8315;52.104;6.304;2022-09-01T13:52:34;25.00;61.90
16412;DHT22;8315;52.104;6.304;2022-09-01T13:55:01;25.00;61.90
16412;DHT22;8315;52.104;6.304;2022-09-01T13:57:29;24.90;61.60
16412;DHT22;8315;52.104;6.304;2022-09-01T13:59:56;24.90;61.80
16412;DHT22;8315;52.104;6.304;2022-09-01T14:02:23;25.00;61.80
16412;DHT22;8315;52.104;6.304;2022-09-01T14:04:50;25.20;62.00
16412;DHT22;8315;52.104;6.304;2022-09-01T14:07:19;25.40;61.80
16412;DHT22;8315;52.104;6.304;2022-09-01T14:09:46;25.40;62.50
16412;DHT22;8315;52.104;6.304;2022-09-01T14:12:13;25.40;62.20
16412;DHT22;8315;52.104;6.304;2022-09-01T14:14:39;25.50;61.50
16412;DHT22;8315;52.104;6.304;2022-09-01T14:17:06;25.40;60.90
16412;DHT22;8315;52.104;6.304;2022-09-01T14:19:33;25.40;61.20
16412;DHT22;8315;52.104;6.304;2022-09-01T14:22:01;25.40;61.20
16412;DHT22;8315;52.104;6.304;2022-09-01T14:24:32;25.30;61.50
16412;DHT22;8315;52.104;6.304;2022-09-01T14:27:00;25.50;61.30
16412;DHT22;8315;52.104;6.304;2022-09-01T14:29:27;25.40;60.60
16412;DHT22;8315;52.104;6.304;2022-09-01T14:31:54;25.50;60.80
16412;DHT22;8315;52.104;6.304;2022-09-01T14:34:21;25.60;60.40
16412;DHT22;8315;52.104;6.304;2022-09-01T14:36:48;25.80;61.00
16412;DHT22;8315;52.104;6.304;2022-09-01T14:39:17;25.90;60.30
16412;DHT22;8315;52.104;6.304;2022-09-01T14:41:45;25.60;60.90
16412;DHT22;8315;52.104;6.304;2022-09-01T14:44:12;25.80;61.10
16412;DHT22;8315;52.104;6.304;2022-09-01T14:46:39;26.10;60.40
16412;DHT22;8315;52.104;6.304;2022-09-01T14:49:06;26.10;59.90
16412;DHT22;8315;52.104;6.304;2022-09-01T14:51:33;26.20;59.80
16412;DHT22;8315;52.104;6.304;2022-09-01T14:54:01;26.20;59.70
16412;DHT22;8315;52.104;6.304;2022-09-01T14:56:28;26.30;59.70
16412;DHT22;8315;52.104;6.304;2022-09-01T14:58:56;26.50;59.90
16412;DHT22;8315;52.104;6.304;2022-09-01T15:01:25;26.80;59.50
16412;DHT22;8315;52.104;6.304;2022-09-01T15:03:52;27.00;58.10
16412;DHT22;8315;52.104;6.304;2022-09-01T15:06:20;26.90;58.60
16412;DHT22;8315;52.104;6.304;2022-09-01T15:08:48;26.80;58.90
16412;DHT22;8315;52.104;6.304;2022-09-01T15:11:15;26.70;59.60
16412;DHT22;8315;52.104;6.304;2022-09-01T15:13:43;26.60;59.20
16412;DHT22;8315;52.104;6.304;2022-09-01T15:16:13;26.80;58.90
16412;DHT22;8315;52.104;6.304;2022-09-01T15:18:41;26.80;59.30
16412;DHT22;8315;52.104;6.304;2022-09-01T15:21:16;26.90;58.70
16412;DHT22;8315;52.104;6.304;2022-09-01T15:23:43;27.00;58.70
16412;DHT22;8315;52.104;6.304;2022-09-01T15:26:10;27.10;57.80
16412;DHT22;8315;52.104;6.304;2022-09-01T15:28:37;27.20;58.20
16412;DHT22;8315;52.104;6.304;2022-09-01T15:31:04;27.30;57.40
16412;DHT22;8315;52.104;6.304;2022-09-01T15:33:33;27.30;57.40
16412;DHT22;8315;52.104;6.304;2022-09-01T15:35:59;27.20;57.30
16412;DHT22;8315;52.104;6.304;2022-09-01T15:38:26;27.50;58.00
16412;DHT22;8315;52.104;6.304;2022-09-01T15:40:53;27.60;57.30
16412;DHT22;8315;52.104;6.304;2022-09-01T15:43:20;27.40;56.50
16412;DHT22;8315;52.104;6.304;2022-09-01T15:45:47;27.50;56.50
16412;DHT22;8315;52.104;6.304;2022-09-01T15:48:14;27.60;56.00
16412;DHT22;8315;52.104;6.304;2022-09-01T15:50:42;27.90;56.30
16412;DHT22;8315;52.104;6.304;2022-09-01T15:53:09;28.10;55.60
16412;DHT22;8315;52.104;6.304;2022-09-01T15:55:38;27.70;55.60
16412;DHT22;8315;52.104;6.304;2022-09-01T15:58:06;27.50;56.20
16412;DHT22;8315;52.104;6.304;2022-09-01T16:00:33;27.50;56.30
16412;DHT22;8315;52.104;6.304;2022-09-01T16:03:01;27.50;56.30
16412;DHT22;8315;52.104;6.304;2022-09-01T16:05:28;27.60;56.10
16412;DHT22;8315;52.104;6.304;2022-09-01T16:07:56;27.60;56.20
16412;DHT22;8315;52.104;6.304;2022-09-01T16:10:23;27.10;56.90
16412;DHT22;8315;52.104;6.304;2022-09-01T16:12:50;26.70;57.90
16412;DHT22;8315;52.104;6.304;2022-09-01T16:15:18;27.00;57.60
16412;DHT22;8315;52.104;6.304;2022-09-01T16:18:02;27.50;56.20
16412;DHT22;8315;52.104;6.304;2022-09-01T16:20:35;27.70;56.50